sensor_id;sensor_type;location;lat;lon;timestamp;P1;durP1;ratioP1;P2;durP2;ratioP2
39074;SDS011;24826;52.070;20.970;2023-04-21T00:01:03;7.03;;;4.45;;
39074;SDS011;24826;52.070;20.970;2023-04-21T00:03:51;7.22;;;4.68;;
39074;SDS011;24826;52.070;20.970;2023-04-21T00:06:36;7.78;;;4.35;;
39074;SDS011;24826;52.070;20.970;2023-04-21T00:09:20;7.35;;;4.28;;
39074;SDS011;24826;52.070;20.970;2023-04-21T00:12:06;5.82;;;4.00;;
39074;SDS011;24826;52.070;20.970;2023-04-21T00:14:50;5.40;;;3.45;;
39074;SDS011;24826;52.070;20.970;2023-04-21T00:17:34;7.03;;;4.30;;
39074;SDS011;24826;52.070;20.970;2023-04-21T00:20:19;8.02;;;4.80;;
39074;SDS011;24826;52.070;20.970;2023-04-21T00:23:03;6.38;;;4.20;;
39074;SDS011;24826;52.070;20.970;2023-04-21T00:25:48;6.15;;;4.07;;
39074;SDS011;24826;52.070;20.970;2023-04-21T00:28:32;6.55;;;4.00;;
39074;SDS011;24826;52.070;20.970;2023-04-21T00:31:16;6.75;;;4.40;;
39074;SDS011;24826;52.070;20.970;2023-04-21T00:34:01;12.00;;;4.63;;
39074;SDS011;24826;52.070;20.970;2023-04-21T00:36:45;6.90;;;4.65;;
39074;SDS011;24826;52.070;20.970;2023-04-21T00:39:30;6.80;;;4.38;;
39074;SDS011;24826;52.070;20.970;2023-04-21T00:42:14;6.70;;;4.10;;
39074;SDS011;24826;52.070;20.970;2023-04-21T00:45:00;5.50;;;3.65;;
39074;SDS011;24826;52.070;20.970;2023-04-21T00:47:44;7.15;;;4.40;;
39074;SDS011;24826;52.070;20.970;2023-04-21T00:50:29;7.88;;;4.38;;
39074;SDS011;24826;52.070;20.970;2023-04-21T00:53:13;6.63;;;4.32;;
39074;SDS011;24826;52.070;20.970;2023-04-21T00:55:59;9.13;;;4.57;;
39074;SDS011;24826;52.070;20.970;2023-04-21T00:58:44;7.15;;;4.35;;
39074;SDS011;24826;52.070;20.970;2023-04-21T01:01:29;6.68;;;4.45;;
39074;SDS011;24826;52.070;20.970;2023-04-21T01:04:15;7.07;;;4.10;;
39074;SDS011;24826;52.070;20.970;2023-04-21T01:06:59;7.13;;;4.45;;
39074;SDS011;24826;52.070;20.970;2023-04-21T01:09:44;7.30;;;4.68;;
39074;SDS011;24826;52.070;20.970;2023-04-21T01:12:29;6.55;;;4.38;;
39074;SDS011;24826;52.070;20.970;2023-04-21T01:15:14;5.97;;;4.00;;
39074;SDS011;24826;52.070;20.970;2023-04-21T01:18:00;6.95;;;4.25;;
39074;SDS011;24826;52.070;20.970;2023-04-21T01:20:44;6.70;;;4.13;;
39074;SDS011;24826;52.070;20.970;2023-04-21T01:23:29;7.13;;;4.03;;
39074;SDS011;24826;52.070;20.970;2023-04-21T01:26:15;6.22;;;4.10;;
39074;SDS011;24826;52.070;20.970;2023-04-21T01:29:01;7.00;;;4.32;;
39074;SDS011;24826;52.070;20.970;2023-04-21T01:31:45;5.97;;;4.20;;
39074;SDS011;24826;52.070;20.970;2023-04-21T01:34:31;5.03;;;3.72;;
39074;SDS011;24826;52.070;20.970;2023-04-21T01:37:16;6.10;;;4.35;;
39074;SDS011;24826;52.070;20.970;2023-04-21T01:40:04;7.30;;;4.63;;
39074;SDS011;24826;52.070;20.970;2023-04-21T01:42:50;6.75;;;4.35;;
39074;SDS011;24826;52.070;20.970;2023-04-21T01:45:34;5.75;;;4.07;;
39074;SDS011;24826;52.070;20.970;2023-04-21T01:48:19;6.55;;;4.18;;
39074;SDS011;24826;52.070;20.970;2023-04-21T01:51:03;6.18;;;4.10;;
39074;SDS011;24826;52.070;20.970;2023-04-21T01:53:47;6.32;;;3.92;;
39074;SDS011;24826;52.070;20.970;2023-04-21T01:56:32;6.72;;;4.30;;
39074;SDS011;24826;52.070;20.970;2023-04-21T01:59:17;6.78;;;3.85;;
39074;SDS011;24826;52.070;20.970;2023-04-21T02:02:01;6.32;;;4.28;;
39074;SDS011;24826;52.070;20.970;2023-04-21T02:04:46;7.30;;;4.63;;
39074;SDS011;24826;52.070;20.970;2023-04-21T02:07:30;6.57;;;4.07;;
39074;SDS011;24826;52.070;20.970;2023-04-21T02:10:14;7.07;;;3.97;;
39074;SDS011;24826;52.070;20.970;2023-04-21T02:12:59;6.38;;;4.38;;
39074;SDS011;24826;52.070;20.970;2023-04-21T02:15:43;5.72;;;3.63;;
39074;SDS011;24826;52.070;20.970;2023-04-21T02:18:28;7.32;;;4.10;;
39074;SDS011;24826;52.070;20.970;2023-04-21T02:21:12;6.75;;;4.15;;
39074;SDS011;24826;52.070;20.970;2023-04-21T02:23:58;5.90;;;3.53;;
39074;SDS011;24826;52.070;20.970;2023-04-21T02:26:42;5.10;;;3.70;;
39074;SDS011;24826;52.070;20.970;2023-04-21T02:29:27;5.38;;;3.67;;
39074;SDS011;24826;52.070;20.970;2023-04-21T02:32:11;5.93;;;4.10;;
39074;SDS011;24826;52.070;20.970;2023-04-21T02:34:56;6.45;;;4.10;;
39074;SDS011;24826;52.070;20.970;2023-04-21T02:37:40;5.88;;;3.50;;
39074;SDS011;24826;52.070;20.970;2023-04-21T02:40:24;6.25;;;3.95;;
39074;SDS011;24826;52.070;20.970;2023-04-21T02:43:09;6.82;;;4.28;;
39074;SDS011;24826;52.070;20.970;2023-04-21T02:45:53;5.55;;;3.70;;
39074;SDS011;24826;52.070;20.970;2023-04-21T02:48:38;6.00;;;3.92;;
39074;SDS011;24826;52.070;20.970;2023-04-21T02:51:22;6.53;;;3.92;;
39074;SDS011;24826;52.070;20.970;2023-04-21T02:54:06;5.75;;;4.00;;
39074;SDS011;24826;52.070;20.970;2023-04-21T02:56:50;6.90;;;3.97;;
39074;SDS011;24826;52.070;20.970;2023-04-21T02:59:35;6.45;;;4.20;;
39074;SDS011;24826;52.070;20.970;2023-04-21T03:02:19;5.15;;;3.53;;
39074;SDS011;24826;52.070;20.970;2023-04-21T03:05:04;5.28;;;3.60;;
39074;SDS011;24826;52.070;20.970;2023-04-21T03:07:49;6.50;;;3.72;;
39074;SDS011;24826;52.070;20.970;2023-04-21T03:10:35;6.95;;;4.30;;
39074;SDS011;24826;52.070;20.970;2023-04-21T03:13:20;5.13;;;3.63;;
39074;SDS011;24826;52.070;20.970;2023-04-21T03:16:06;5.68;;;3.92;;
39074;SDS011;24826;52.070;20.970;2023-04-21T03:18:51;6.25;;;4.13;;
39074;SDS011;24826;52.070;20.970;2023-04-21T03:21:35;6.15;;;3.95;;
39074;SDS011;24826;52.070;20.970;2023-04-21T03:24:21;6.53;;;4.20;;
39074;SDS011;24826;52.070;20.970;2023-04-21T03:27:05;5.85;;;4.03;;
39074;SDS011;24826;52.070;20.970;2023-04-21T03:29:50;7.40;;;4.20;;
39074;SDS011;24826;52.070;20.970;2023-04-21T03:32:34;6.40;;;3.58;;
39074;SDS011;24826;52.070;20.970;2023-04-21T03:35:19;5.50;;;3.80;;
39074;SDS011;24826;52.070;20.970;2023-04-21T03:38:03;5.93;;;4.07;;
39074;SDS011;24826;52.070;20.970;2023-04-21T03:40:47;7.72;;;4.20;;
39074;SDS011;24826;52.070;20.970;2023-04-21T03:43:31;5.57;;;3.75;;
39074;SDS011;24826;52.070;20.970;2023-04-21T03:46:19;6.90;;;4.25;;
39074;SDS011;24826;52.070;20.970;2023-04-21T03:49:04;5.80;;;3.97;;
39074;SDS011;24826;52.070;20.970;2023-04-21T03:51:49;5.70;;;3.92;;
39074;SDS011;24826;52.070;20.970;2023-04-21T03:54:33;7.55;;;3.40;;
39074;SDS011;24826;52.070;20.970;2023-04-21T03:57:17;5.97;;;3.58;;
39074;SDS011;24826;52.070;20.970;2023-04-21T04:00:02;5.07;;;3.65;;
39074;SDS011;24826;52.070;20.970;2023-04-21T04:02:48;6.45;;;3.90;;
39074;SDS011;24826;52.070;20.970;2023-04-21T04:05:33;5.63;;;3.83;;
39074;SDS011;24826;52.070;20.970;2023-04-21T04:08:19;6.93;;;3.88;;
39074;SDS011;24826;52.070;20.970;2023-04-21T04:11:03;7.38;;;4.15;;
39074;SDS011;24826;52.070;20.970;2023-04-21T04:13:48;6.63;;;4.20;;
39074;SDS011;24826;52.070;20.970;2023-04-21T04:16:33;5.70;;;3.72;;
39074;SDS011;24826;52.070;20.970;2023-04-21T04:19:18;5.18;;;3.92;;
39074;SDS011;24826;52.070;20.970;2023-04-21T04:22:03;6.55;;;3.97;;
39074;SDS011;24826;52.070;20.970;2023-04-21T04:24:48;7.07;;;4.15;;
39074;SDS011;24826;52.070;20.970;2023-04-21T04:27:32;5.45;;;3.75;;
39074;SDS011;24826;52.070;20.970;2023-04-21T04:30:17;6.35;;;4.00;;
39074;SDS011;24826;52.070;20.970;2023-04-21T04:33:01;5.85;;;4.03;;
39074;SDS011;24826;52.070;20.970;2023-04-21T04:35:45;7.45;;;4.35;;
39074;SDS011;24826;52.070;20.970;2023-04-21T04:38:30;12.65;;;5.53;;
39074;SDS011;24826;52.070;20.970;2023-04-21T04:41:17;8.48;;;4.13;;
39074;SDS011;24826;52.070;20.970;2023-04-21T04:44:03;7.38;;;4.25;;
39074;SDS011;24826;52.070;20.970;2023-04-21T04:46:48;11.43;;;3.75;;
39074;SDS011;24826;52.070;20.970;2023-04-21T04:49:33;8.00;;;4.63;;
39074;SDS011;24826;52.070;20.970;2023-04-21T04:52:17;7.05;;;4.05;;
39074;SDS011;24826;52.070;20.970;2023-04-21T04:55:01;7.72;;;3.83;;
39074;SDS011;24826;52.070;20.970;2023-04-21T04:57:47;33.50;;;5.82;;
39074;SDS011;24826;52.070;20.970;2023-04-21T05:00:31;26.20;;;5.50;;
39074;SDS011;24826;52.070;20.970;2023-04-21T05:03:16;19.27;;;4.90;;
39074;SDS011;24826;52.070;20.970;2023-04-21T05:06:00;13.68;;;4.68;;
39074;SDS011;24826;52.070;20.970;2023-04-21T05:08:44;9.80;;;4.25;;
39074;SDS011;24826;52.070;20.970;2023-04-21T05:11:28;8.95;;;4.00;;
39074;SDS011;24826;52.070;20.970;2023-04-21T05:14:12;8.15;;;4.32;;
39074;SDS011;24826;52.070;20.970;2023-04-21T05:16:56;8.20;;;3.92;;
39074;SDS011;24826;52.070;20.970;2023-04-21T05:19:41;7.90;;;3.95;;
39074;SDS011;24826;52.070;20.970;2023-04-21T05:22:25;5.60;;;3.25;;
39074;SDS011;24826;52.070;20.970;2023-04-21T05:25:10;10.93;;;3.70;;
39074;SDS011;24826;52.070;20.970;2023-04-21T05:27:58;7.75;;;3.58;;
39074;SDS011;24826;52.070;20.970;2023-04-21T05:30:43;7.70;;;3.80;;
39074;SDS011;24826;52.070;20.970;2023-04-21T05:33:27;5.20;;;3.67;;
39074;SDS011;24826;52.070;20.970;2023-04-21T05:36:15;6.95;;;4.13;;
39074;SDS011;24826;52.070;20.970;2023-04-21T05:38:59;5.60;;;3.58;;
39074;SDS011;24826;52.070;20.970;2023-04-21T05:41:43;8.70;;;3.60;;
39074;SDS011;24826;52.070;20.970;2023-04-21T05:44:28;7.72;;;3.63;;
39074;SDS011;24826;52.070;20.970;2023-04-21T05:47:12;8.52;;;3.70;;
39074;SDS011;24826;52.070;20.970;2023-04-21T05:49:57;8.07;;;3.88;;
39074;SDS011;24826;52.070;20.970;2023-04-21T05:52:41;8.48;;;4.32;;
39074;SDS011;24826;52.070;20.970;2023-04-21T05:55:25;6.55;;;3.95;;
39074;SDS011;24826;52.070;20.970;2023-04-21T05:58:10;6.65;;;4.03;;
39074;SDS011;24826;52.070;20.970;2023-04-21T06:00:54;7.65;;;4.05;;
39074;SDS011;24826;52.070;20.970;2023-04-21T06:03:38;7.22;;;3.65;;
39074;SDS011;24826;52.070;20.970;2023-04-21T06:06:24;5.57;;;3.70;;
39074;SDS011;24826;52.070;20.970;2023-04-21T06:09:09;6.03;;;3.42;;
39074;SDS011;24826;52.070;20.970;2023-04-21T06:11:53;8.45;;;4.30;;
39074;SDS011;24826;52.070;20.970;2023-04-21T06:14:38;6.80;;;3.65;;
39074;SDS011;24826;52.070;20.970;2023-04-21T06:17:22;6.55;;;3.50;;
39074;SDS011;24826;52.070;20.970;2023-04-21T06:20:07;6.43;;;3.70;;
39074;SDS011;24826;52.070;20.970;2023-04-21T06:22:51;5.47;;;3.33;;
39074;SDS011;24826;52.070;20.970;2023-04-21T06:25:36;6.75;;;3.58;;
39074;SDS011;24826;52.070;20.970;2023-04-21T06:28:20;5.93;;;3.13;;
39074;SDS011;24826;52.070;20.970;2023-04-21T06:31:05;5.40;;;3.30;;
39074;SDS011;24826;52.070;20.970;2023-04-21T06:33:49;5.97;;;3.38;;
39074;SDS011;24826;52.070;20.970;2023-04-21T06:36:34;6.35;;;3.53;;
39074;SDS011;24826;52.070;20.970;2023-04-21T06:39:18;6.35;;;3.42;;
39074;SDS011;24826;52.070;20.970;2023-04-21T06:42:03;6.00;;;3.38;;
39074;SDS011;24826;52.070;20.970;2023-04-21T06:44:47;13.00;;;3.95;;
39074;SDS011;24826;52.070;20.970;2023-04-21T06:47:32;7.20;;;3.30;;
39074;SDS011;24826;52.070;20.970;2023-04-21T06:50:16;7.55;;;3.17;;
39074;SDS011;24826;52.070;20.970;2023-04-21T06:53:00;9.80;;;3.90;;
39074;SDS011;24826;52.070;20.970;2023-04-21T06:55:45;7.35;;;3.40;;
39074;SDS011;24826;52.070;20.970;2023-04-21T06:58:29;7.43;;;3.20;;
39074;SDS011;24826;52.070;20.970;2023-04-21T07:01:13;6.10;;;3.35;;
39074;SDS011;24826;52.070;20.970;2023-04-21T07:03:57;8.75;;;3.35;;
39074;SDS011;24826;52.070;20.970;2023-04-21T07:06:42;4.60;;;2.75;;
39074;SDS011;24826;52.070;20.970;2023-04-21T07:09:26;7.03;;;3.33;;
39074;SDS011;24826;52.070;20.970;2023-04-21T07:12:16;5.28;;;3.05;;
39074;SDS011;24826;52.070;20.970;2023-04-21T07:15:01;12.48;;;3.45;;
39074;SDS011;24826;52.070;20.970;2023-04-21T07:17:46;5.47;;;3.38;;
39074;SDS011;24826;52.070;20.970;2023-04-21T07:20:30;6.95;;;3.05;;
39074;SDS011;24826;52.070;20.970;2023-04-21T07:23:15;7.65;;;3.80;;
39074;SDS011;24826;52.070;20.970;2023-04-21T07:26:00;6.90;;;3.85;;
39074;SDS011;24826;52.070;20.970;2023-04-21T07:28:44;12.50;;;3.10;;
39074;SDS011;24826;52.070;20.970;2023-04-21T07:31:28;8.45;;;3.42;;
39074;SDS011;24826;52.070;20.970;2023-04-21T07:34:13;10.38;;;3.42;;
39074;SDS011;24826;52.070;20.970;2023-04-21T07:36:58;8.43;;;2.97;;
39074;SDS011;24826;52.070;20.970;2023-04-21T07:39:42;8.93;;;2.90;;
39074;SDS011;24826;52.070;20.970;2023-04-21T07:42:27;8.70;;;3.25;;
39074;SDS011;24826;52.070;20.970;2023-04-21T07:45:11;8.77;;;2.95;;
39074;SDS011;24826;52.070;20.970;2023-04-21T07:47:56;10.30;;;3.45;;
39074;SDS011;24826;52.070;20.970;2023-04-21T07:50:40;12.80;;;3.45;;
39074;SDS011;24826;52.070;20.970;2023-04-21T07:53:25;7.32;;;3.20;;
39074;SDS011;24826;52.070;20.970;2023-04-21T07:56:10;13.30;;;4.03;;
39074;SDS011;24826;52.070;20.970;2023-04-21T07:58:56;11.98;;;3.40;;
39074;SDS011;24826;52.070;20.970;2023-04-21T08:01:40;9.93;;;3.58;;
39074;SDS011;24826;52.070;20.970;2023-04-21T08:04:25;14.52;;;3.53;;
39074;SDS011;24826;52.070;20.970;2023-04-21T08:07:09;18.23;;;3.15;;
39074;SDS011;24826;52.070;20.970;2023-04-21T08:09:56;8.18;;;2.90;;
39074;SDS011;24826;52.070;20.970;2023-04-21T08:12:40;7.15;;;3.25;;
39074;SDS011;24826;52.070;20.970;2023-04-21T08:15:25;9.98;;;3.15;;
39074;SDS011;24826;52.070;20.970;2023-04-21T08:18:09;13.30;;;3.65;;
39074;SDS011;24826;52.070;20.970;2023-04-21T08:20:53;9.23;;;2.97;;
39074;SDS011;24826;52.070;20.970;2023-04-21T08:23:40;6.90;;;2.83;;
39074;SDS011;24826;52.070;20.970;2023-04-21T08:26:25;8.02;;;3.13;;
39074;SDS011;24826;52.070;20.970;2023-04-21T08:29:09;17.75;;;4.55;;
39074;SDS011;24826;52.070;20.970;2023-04-21T08:31:56;8.23;;;2.97;;
39074;SDS011;24826;52.070;20.970;2023-04-21T08:34:40;7.65;;;3.33;;
39074;SDS011;24826;52.070;20.970;2023-04-21T08:37:25;21.35;;;3.35;;
39074;SDS011;24826;52.070;20.970;2023-04-21T08:40:09;9.77;;;3.53;;
39074;SDS011;24826;52.070;20.970;2023-04-21T08:42:54;6.65;;;2.97;;
39074;SDS011;24826;52.070;20.970;2023-04-21T08:45:39;9.70;;;2.88;;
39074;SDS011;24826;52.070;20.970;2023-04-21T08:48:24;10.45;;;4.05;;
39074;SDS011;24826;52.070;20.970;2023-04-21T08:51:10;16.70;;;3.70;;
39074;SDS011;24826;52.070;20.970;2023-04-21T08:54:04;9.70;;;3.50;;
39074;SDS011;24826;52.070;20.970;2023-04-21T08:56:48;6.68;;;2.55;;
39074;SDS011;24826;52.070;20.970;2023-04-21T08:59:33;7.57;;;2.80;;
39074;SDS011;24826;52.070;20.970;2023-04-21T09:02:17;8.65;;;3.30;;
39074;SDS011;24826;52.070;20.970;2023-04-21T09:05:02;5.35;;;3.00;;
39074;SDS011;24826;52.070;20.970;2023-04-21T09:07:47;9.50;;;3.22;;
39074;SDS011;24826;52.070;20.970;2023-04-21T09:10:32;7.32;;;4.03;;
39074;SDS011;24826;52.070;20.970;2023-04-21T09:13:17;9.32;;;3.13;;
39074;SDS011;24826;52.070;20.970;2023-04-21T09:16:03;7.50;;;3.40;;
39074;SDS011;24826;52.070;20.970;2023-04-21T09:18:58;8.95;;;4.00;;
39074;SDS011;24826;52.070;20.970;2023-04-21T09:21:43;7.97;;;4.80;;
39074;SDS011;24826;52.070;20.970;2023-04-21T09:24:28;10.30;;;6.75;;
39074;SDS011;24826;52.070;20.970;2023-04-21T09:27:14;10.57;;;8.20;;
39074;SDS011;24826;52.070;20.970;2023-04-21T09:30:03;12.70;;;8.82;;
39074;SDS011;24826;52.070;20.970;2023-04-21T09:32:55;13.48;;;12.27;;
39074;SDS011;24826;52.070;20.970;2023-04-21T09:35:43;12.07;;;10.50;;
39074;SDS011;24826;52.070;20.970;2023-04-21T09:38:27;13.32;;;11.70;;
39074;SDS011;24826;52.070;20.970;2023-04-21T09:41:11;14.73;;;10.38;;
39074;SDS011;24826;52.070;20.970;2023-04-21T09:44:00;30.05;;;27.05;;
39074;SDS011;24826;52.070;20.970;2023-04-21T09:46:47;33.72;;;30.25;;
39074;SDS011;24826;52.070;20.970;2023-04-21T09:49:34;46.45;;;33.00;;
39074;SDS011;24826;52.070;20.970;2023-04-21T09:52:27;46.45;;;35.90;;
39074;SDS011;24826;52.070;20.970;2023-04-21T09:55:12;36.70;;;30.15;;
39074;SDS011;24826;52.070;20.970;2023-04-21T09:57:57;24.40;;;19.95;;
39074;SDS011;24826;52.070;20.970;2023-04-21T10:00:43;24.23;;;17.00;;
39074;SDS011;24826;52.070;20.970;2023-04-21T10:03:28;20.40;;;13.90;;
39074;SDS011;24826;52.070;20.970;2023-04-21T10:06:14;15.43;;;10.48;;
39074;SDS011;24826;52.070;20.970;2023-04-21T10:08:58;17.80;;;12.20;;
39074;SDS011;24826;52.070;20.970;2023-04-21T10:11:45;20.40;;;13.77;;
39074;SDS011;24826;52.070;20.970;2023-04-21T10:14:29;23.13;;;17.75;;
39074;SDS011;24826;52.070;20.970;2023-04-21T10:17:14;26.00;;;18.60;;
39074;SDS011;24826;52.070;20.970;2023-04-21T10:19:58;18.35;;;13.07;;
39074;SDS011;24826;52.070;20.970;2023-04-21T10:22:43;25.52;;;18.25;;
39074;SDS011;24826;52.070;20.970;2023-04-21T10:25:28;26.23;;;18.90;;
39074;SDS011;24826;52.070;20.970;2023-04-21T10:28:16;24.20;;;14.98;;
39074;SDS011;24826;52.070;20.970;2023-04-21T10:31:15;19.65;;;11.90;;
39074;SDS011;24826;52.070;20.970;2023-04-21T10:46:34;12.02;;;7.43;;
39074;SDS011;24826;52.070;20.970;2023-04-21T10:49:21;9.45;;;6.35;;
39074;SDS011;24826;52.070;20.970;2023-04-21T10:52:10;12.30;;;7.68;;
39074;SDS011;24826;52.070;20.970;2023-04-21T10:57:51;11.88;;;5.15;;
39074;SDS011;24826;52.070;20.970;2023-04-21T11:00:36;13.73;;;4.55;;
39074;SDS011;24826;52.070;20.970;2023-04-21T11:03:21;7.13;;;4.00;;
39074;SDS011;24826;52.070;20.970;2023-04-21T11:06:12;7.80;;;4.43;;
39074;SDS011;24826;52.070;20.970;2023-04-21T11:08:58;10.73;;;4.53;;
39074;SDS011;24826;52.070;20.970;2023-04-21T11:11:42;9.50;;;3.50;;
39074;SDS011;24826;52.070;20.970;2023-04-21T11:14:27;8.07;;;3.83;;
39074;SDS011;24826;52.070;20.970;2023-04-21T11:20:00;7.57;;;3.25;;
39074;SDS011;24826;52.070;20.970;2023-04-21T11:22:48;6.25;;;3.55;;
39074;SDS011;24826;52.070;20.970;2023-04-21T11:25:35;11.38;;;4.30;;
39074;SDS011;24826;52.070;20.970;2023-04-21T11:28:20;7.13;;;3.30;;
39074;SDS011;24826;52.070;20.970;2023-04-21T11:31:05;6.10;;;2.60;;
39074;SDS011;24826;52.070;20.970;2023-04-21T11:33:50;7.13;;;3.15;;
39074;SDS011;24826;52.070;20.970;2023-04-21T11:36:35;7.75;;;3.22;;
39074;SDS011;24826;52.070;20.970;2023-04-21T11:39:24;8.03;;;3.10;;
39074;SDS011;24826;52.070;20.970;2023-04-21T11:42:09;6.65;;;3.20;;
39074;SDS011;24826;52.070;20.970;2023-04-21T11:44:55;7.85;;;3.17;;
39074;SDS011;24826;52.070;20.970;2023-04-21T11:47:40;6.28;;;3.03;;
39074;SDS011;24826;52.070;20.970;2023-04-21T11:50:30;7.78;;;3.03;;
39074;SDS011;24826;52.070;20.970;2023-04-21T11:53:15;5.82;;;2.95;;
39074;SDS011;24826;52.070;20.970;2023-04-21T11:56:00;5.60;;;2.55;;
39074;SDS011;24826;52.070;20.970;2023-04-21T11:58:45;6.00;;;2.45;;
39074;SDS011;24826;52.070;20.970;2023-04-21T12:01:29;6.20;;;2.47;;
39074;SDS011;24826;52.070;20.970;2023-04-21T12:04:18;8.07;;;3.10;;
39074;SDS011;24826;52.070;20.970;2023-04-21T12:07:05;5.40;;;2.72;;
39074;SDS011;24826;52.070;20.970;2023-04-21T12:09:50;6.20;;;2.97;;
39074;SDS011;24826;52.070;20.970;2023-04-21T12:12:38;6.18;;;2.78;;
39074;SDS011;24826;52.070;20.970;2023-04-21T12:15:26;5.75;;;2.50;;
39074;SDS011;24826;52.070;20.970;2023-04-21T12:18:13;7.22;;;2.70;;
39074;SDS011;24826;52.070;20.970;2023-04-21T12:21:00;4.32;;;2.17;;
39074;SDS011;24826;52.070;20.970;2023-04-21T12:23:45;4.85;;;2.38;;
39074;SDS011;24826;52.070;20.970;2023-04-21T12:26:29;4.63;;;2.72;;
39074;SDS011;24826;52.070;20.970;2023-04-21T12:29:13;9.40;;;2.63;;
39074;SDS011;24826;52.070;20.970;2023-04-21T12:31:58;6.53;;;3.03;;
39074;SDS011;24826;52.070;20.970;2023-04-21T12:34:42;6.13;;;2.45;;
39074;SDS011;24826;52.070;20.970;2023-04-21T12:37:27;4.10;;;2.17;;
39074;SDS011;24826;52.070;20.970;2023-04-21T12:40:11;8.32;;;2.65;;
39074;SDS011;24826;52.070;20.970;2023-04-21T12:42:56;5.25;;;2.55;;
39074;SDS011;24826;52.070;20.970;2023-04-21T12:45:40;5.85;;;2.38;;
39074;SDS011;24826;52.070;20.970;2023-04-21T12:48:25;5.25;;;2.67;;
39074;SDS011;24826;52.070;20.970;2023-04-21T12:51:09;6.38;;;2.25;;
39074;SDS011;24826;52.070;20.970;2023-04-21T12:53:54;6.55;;;2.60;;
39074;SDS011;24826;52.070;20.970;2023-04-21T12:56:38;6.50;;;2.67;;
39074;SDS011;24826;52.070;20.970;2023-04-21T12:59:23;7.90;;;2.47;;
39074;SDS011;24826;52.070;20.970;2023-04-21T13:02:07;6.95;;;2.65;;
39074;SDS011;24826;52.070;20.970;2023-04-21T13:04:52;5.03;;;2.53;;
39074;SDS011;24826;52.070;20.970;2023-04-21T13:07:37;8.10;;;2.53;;
39074;SDS011;24826;52.070;20.970;2023-04-21T13:10:21;5.55;;;2.78;;
39074;SDS011;24826;52.070;20.970;2023-04-21T13:13:06;6.50;;;2.58;;
39074;SDS011;24826;52.070;20.970;2023-04-21T13:15:50;8.30;;;2.55;;
39074;SDS011;24826;52.070;20.970;2023-04-21T13:18:34;5.45;;;2.65;;
39074;SDS011;24826;52.070;20.970;2023-04-21T13:21:20;5.35;;;2.50;;
39074;SDS011;24826;52.070;20.970;2023-04-21T13:24:04;5.68;;;2.60;;
39074;SDS011;24826;52.070;20.970;2023-04-21T13:26:49;3.95;;;2.30;;
39074;SDS011;24826;52.070;20.970;2023-04-21T13:29:33;4.72;;;2.30;;
39074;SDS011;24826;52.070;20.970;2023-04-21T13:32:18;6.82;;;2.22;;
39074;SDS011;24826;52.070;20.970;2023-04-21T13:35:03;24.60;;;3.53;;
39074;SDS011;24826;52.070;20.970;2023-04-21T13:37:51;6.53;;;2.50;;
39074;SDS011;24826;52.070;20.970;2023-04-21T13:40:35;7.95;;;2.83;;
39074;SDS011;24826;52.070;20.970;2023-04-21T13:43:20;4.47;;;2.20;;
39074;SDS011;24826;52.070;20.970;2023-04-21T13:46:04;6.18;;;2.60;;
39074;SDS011;24826;52.070;20.970;2023-04-21T13:48:49;5.25;;;2.88;;
39074;SDS011;24826;52.070;20.970;2023-04-21T13:51:34;10.48;;;2.50;;
39074;SDS011;24826;52.070;20.970;2023-04-21T13:54:19;8.85;;;2.47;;
39074;SDS011;24826;52.070;20.970;2023-04-21T13:57:03;4.70;;;2.50;;
39074;SDS011;24826;52.070;20.970;2023-04-21T13:59:48;8.15;;;2.72;;
39074;SDS011;24826;52.070;20.970;2023-04-21T14:02:33;5.03;;;2.33;;
39074;SDS011;24826;52.070;20.970;2023-04-21T14:05:17;7.30;;;2.67;;
39074;SDS011;24826;52.070;20.970;2023-04-21T14:08:02;6.28;;;2.53;;
39074;SDS011;24826;52.070;20.970;2023-04-21T14:10:46;8.07;;;2.60;;
39074;SDS011;24826;52.070;20.970;2023-04-21T14:13:30;8.57;;;2.97;;
39074;SDS011;24826;52.070;20.970;2023-04-21T14:16:15;4.55;;;2.38;;
39074;SDS011;24826;52.070;20.970;2023-04-21T14:18:59;6.68;;;2.75;;
39074;SDS011;24826;52.070;20.970;2023-04-21T14:21:44;4.55;;;2.30;;
39074;SDS011;24826;52.070;20.970;2023-04-21T14:24:28;5.97;;;2.55;;
39074;SDS011;24826;52.070;20.970;2023-04-21T14:27:15;6.75;;;2.80;;
39074;SDS011;24826;52.070;20.970;2023-04-21T14:29:59;5.47;;;2.65;;
39074;SDS011;24826;52.070;20.970;2023-04-21T14:32:44;6.45;;;2.35;;
39074;SDS011;24826;52.070;20.970;2023-04-21T14:35:29;4.60;;;2.38;;
39074;SDS011;24826;52.070;20.970;2023-04-21T14:38:13;4.63;;;2.50;;
39074;SDS011;24826;52.070;20.970;2023-04-21T14:40:58;8.25;;;2.28;;
39074;SDS011;24826;52.070;20.970;2023-04-21T14:43:43;5.22;;;2.30;;
39074;SDS011;24826;52.070;20.970;2023-04-21T14:46:27;6.03;;;2.30;;
39074;SDS011;24826;52.070;20.970;2023-04-21T14:49:12;6.07;;;2.22;;
39074;SDS011;24826;52.070;20.970;2023-04-21T14:51:56;5.25;;;2.33;;
39074;SDS011;24826;52.070;20.970;2023-04-21T14:54:40;8.70;;;2.53;;
39074;SDS011;24826;52.070;20.970;2023-04-21T14:57:24;7.78;;;2.55;;
39074;SDS011;24826;52.070;20.970;2023-04-21T15:00:10;5.60;;;2.42;;
39074;SDS011;24826;52.070;20.970;2023-04-21T15:02:54;5.88;;;2.05;;
39074;SDS011;24826;52.070;20.970;2023-04-21T15:05:39;12.98;;;3.05;;
39074;SDS011;24826;52.070;20.970;2023-04-21T15:08:23;6.97;;;2.60;;
39074;SDS011;24826;52.070;20.970;2023-04-21T15:11:08;8.07;;;2.60;;
39074;SDS011;24826;52.070;20.970;2023-04-21T15:13:52;7.50;;;2.58;;
39074;SDS011;24826;52.070;20.970;2023-04-21T15:16:37;5.63;;;2.38;;
39074;SDS011;24826;52.070;20.970;2023-04-21T15:19:21;8.77;;;2.45;;
39074;SDS011;24826;52.070;20.970;2023-04-21T15:22:06;7.07;;;2.25;;
39074;SDS011;24826;52.070;20.970;2023-04-21T15:24:50;5.85;;;2.55;;
39074;SDS011;24826;52.070;20.970;2023-04-21T15:27:34;9.30;;;2.25;;
39074;SDS011;24826;52.070;20.970;2023-04-21T15:30:19;4.95;;;1.90;;
39074;SDS011;24826;52.070;20.970;2023-04-21T15:33:04;5.85;;;2.38;;
39074;SDS011;24826;52.070;20.970;2023-04-21T15:35:48;7.30;;;2.13;;
39074;SDS011;24826;52.070;20.970;2023-04-21T15:38:33;4.45;;;2.13;;
39074;SDS011;24826;52.070;20.970;2023-04-21T15:41:17;4.30;;;1.95;;
39074;SDS011;24826;52.070;20.970;2023-04-21T15:44:02;6.63;;;2.42;;
39074;SDS011;24826;52.070;20.970;2023-04-21T15:46:47;7.10;;;2.13;;
39074;SDS011;24826;52.070;20.970;2023-04-21T15:49:32;4.95;;;2.42;;
39074;SDS011;24826;52.070;20.970;2023-04-21T15:52:16;6.97;;;2.13;;
39074;SDS011;24826;52.070;20.970;2023-04-21T15:55:01;7.93;;;2.20;;
39074;SDS011;24826;52.070;20.970;2023-04-21T15:57:45;10.07;;;2.40;;
39074;SDS011;24826;52.070;20.970;2023-04-21T16:00:30;7.63;;;2.40;;
39074;SDS011;24826;52.070;20.970;2023-04-21T16:03:14;6.82;;;2.10;;
39074;SDS011;24826;52.070;20.970;2023-04-21T16:05:59;7.35;;;2.03;;
39074;SDS011;24826;52.070;20.970;2023-04-21T16:08:44;8.30;;;2.63;;
39074;SDS011;24826;52.070;20.970;2023-04-21T16:11:28;10.25;;;2.45;;
39074;SDS011;24826;52.070;20.970;2023-04-21T16:14:13;4.82;;;2.45;;
39074;SDS011;24826;52.070;20.970;2023-04-21T16:16:59;6.55;;;2.60;;
39074;SDS011;24826;52.070;20.970;2023-04-21T16:19:43;5.32;;;2.53;;
39074;SDS011;24826;52.070;20.970;2023-04-21T16:22:28;5.45;;;2.20;;
39074;SDS011;24826;52.070;20.970;2023-04-21T16:25:13;10.10;;;2.55;;
39074;SDS011;24826;52.070;20.970;2023-04-21T16:27:59;4.97;;;1.98;;
39074;SDS011;24826;52.070;20.970;2023-04-21T16:30:44;7.28;;;2.35;;
39074;SDS011;24826;52.070;20.970;2023-04-21T16:33:29;6.45;;;2.47;;